^^
Your Local Weather - Clay, NY Station Historical Data
Daily Summary for February 22, 2018 Units:  Both    English   Metric
« Previous Day
Next Day »
Daily Weekly Monthly Yearly Custom
  High: Low: Average:
Temperature: 35.1 °F /  1.7 °C 30.7 °F /  -0.7 °C 33.1 °F /  0.6 °C
Dew Point: 31.5 °F /  -0.3 °C 28.4 °F /  -2 °C 29.9 °F /  -1.2 °C
Humidity: 93% 82% 88%
Wind Speed: 2.0mph /  3.2km/h - 0.2mph /  0.3km/h
Wind Gust: 4.0mph /  6.4km/h - -
Wind- - WSW
Pressure: 30.66 in /  1038.1 hPa 30.57 in /  1035.1 hPa -
Precipitation: 0.17 in /  4.32 mm    
Historical Graphs
 
 
Tabular Data for February 22, 2018
Time Temperature Dew Point Pressure Wind Wind Speed Wind Gust Humidity Rainfall Rate (Hourly) solar
00:02 33.3 °F /  0.7 °C 28.4 °F /  -2 °C 30.57in /  1035.1hPa WNW 1.0mph /  1.6km/h 2.0mph /  3.2km/h 82% 0.00in /  0mm 0 W/m2
00:08 33.4 °F /  0.8 °C 28.5 °F /  -1.9 °C 30.57in /  1035.1hPa WNW 1.0mph /  1.6km/h 2.0mph /  3.2km/h 82% 0.00in /  0mm 0 W/m2
00:14 33.3 °F /  0.7 °C 28.4 °F /  -2 °C 30.57in /  1035.1hPa Calm   1.0mph /  1.6km/h 82% 0.00in /  0mm 0 W/m2
00:20 33.4 °F /  0.8 °C 28.5 °F /  -1.9 °C 30.57in /  1035.1hPa Calm   3.0mph /  4.8km/h 82% 0.00in /  0mm 0 W/m2
00:26 33.4 °F /  0.8 °C 28.5 °F /  -1.9 °C 30.58in /  1035.4hPa Calm   3.0mph /  4.8km/h 82% 0.00in /  0mm 0 W/m2
00:32 33.4 °F /  0.8 °C 28.5 °F /  -1.9 °C 30.58in /  1035.4hPa WNW 1.0mph /  1.6km/h 1.0mph /  1.6km/h 82% 0.00in /  0mm 0 W/m2
00:38 33.5 °F /  0.8 °C 28.6 °F /  -1.9 °C 30.58in /  1035.4hPa WNW 1.0mph /  1.6km/h 1.0mph /  1.6km/h 82% 0.00in /  0mm 0 W/m2
00:44 33.4 °F /  0.8 °C 28.5 °F /  -1.9 °C 30.57in /  1035.1hPa Calm   2.0mph /  3.2km/h 82% 0.00in /  0mm 0 W/m2
00:50 33.4 °F /  0.8 °C 28.5 °F /  -1.9 °C 30.58in /  1035.4hPa WNW 1.0mph /  1.6km/h 1.0mph /  1.6km/h 82% 0.00in /  0mm 0 W/m2
00:56 33.4 °F /  0.8 °C 28.5 °F /  -1.9 °C 30.58in /  1035.4hPa WNW 1.0mph /  1.6km/h 2.0mph /  3.2km/h 82% 0.00in /  0mm 0 W/m2
01:02 33.4 °F /  0.8 °C 28.5 °F /  -1.9 °C 30.58in /  1035.4hPa WNW 1.0mph /  1.6km/h 1.0mph /  1.6km/h 82% 0.00in /  0mm 0 W/m2
01:08 33.4 °F /  0.8 °C 28.5 °F /  -1.9 °C 30.59in /  1035.8hPa Calm   2.0mph /  3.2km/h 82% 0.00in /  0mm 0 W/m2
01:14 33.4 °F /  0.8 °C 28.5 °F /  -1.9 °C 30.58in /  1035.4hPa Calm   1.0mph /  1.6km/h 82% 0.00in /  0mm 0 W/m2
01:20 33.4 °F /  0.8 °C 28.5 °F /  -1.9 °C 30.59in /  1035.8hPa Calm     82% 0.00in /  0mm 0 W/m2
01:26 33.4 °F /  0.8 °C 28.5 °F /  -1.9 °C 30.59in /  1035.8hPa Calm   1.0mph /  1.6km/h 82% 0.00in /  0mm 0 W/m2
01:32 33.4 °F /  0.8 °C 28.5 °F /  -1.9 °C 30.59in /  1035.8hPa Calm   2.0mph /  3.2km/h 82% 0.00in /  0mm 0 W/m2
01:38 33.3 °F /  0.7 °C 28.4 °F /  -2 °C 30.59in /  1035.8hPa WNW 1.0mph /  1.6km/h 2.0mph /  3.2km/h 82% 0.00in /  0mm 0 W/m2
01:44 33.3 °F /  0.7 °C 28.7 °F /  -1.8 °C 30.59in /  1035.8hPa Calm   2.0mph /  3.2km/h 83% 0.00in /  0mm 0 W/m2
01:50 33.4 °F /  0.8 °C 28.8 °F /  -1.8 °C 30.59in /  1035.8hPa WNW 1.0mph /  1.6km/h 1.0mph /  1.6km/h 83% 0.00in /  0mm 0 W/m2
01:56 33.3 °F /  0.7 °C 28.7 °F /  -1.8 °C 30.59in /  1035.8hPa Calm   1.0mph /  1.6km/h 83% 0.00in /  0mm 0 W/m2
02:02 33.3 °F /  0.7 °C 28.7 °F /  -1.8 °C 30.59in /  1035.8hPa Calm     83% 0.00in /  0mm 0 W/m2
02:08 33.3 °F /  0.7 °C 28.7 °F /  -1.8 °C 30.59in /  1035.8hPa Calm     83% 0.00in /  0mm 0 W/m2
02:14 33.2 °F /  0.7 °C 28.6 °F /  -1.9 °C 30.59in /  1035.8hPa Calm     83% 0.00in /  0mm 0 W/m2
02:20 33.2 °F /  0.7 °C 28.6 °F /  -1.9 °C 30.59in /  1035.8hPa Calm     83% 0.00in /  0mm 0 W/m2
02:26 33.2 °F /  0.7 °C 28.6 °F /  -1.9 °C 30.59in /  1035.8hPa WNW 1.0mph /  1.6km/h 3.0mph /  4.8km/h 83% 0.00in /  0mm 0 W/m2
02:32 33.2 °F /  0.7 °C 28.6 °F /  -1.9 °C 30.59in /  1035.8hPa Calm     83% 0.00in /  0mm 0 W/m2
02:38 33.2 °F /  0.7 °C 28.9 °F /  -1.7 °C 30.59in /  1035.8hPa Calm     84% 0.00in /  0mm 0 W/m2
02:44 33.2 °F /  0.7 °C 28.6 °F /  -1.9 °C 30.59in /  1035.8hPa Calm     83% 0.00in /  0mm 0 W/m2
02:50 33.2 °F /  0.7 °C 28.9 °F /  -1.7 °C 30.59in /  1035.8hPa Calm     84% 0.00in /  0mm 0 W/m2
02:56 33.2 °F /  0.7 °C 28.9 °F /  -1.7 °C 30.59in /  1035.8hPa Calm     84% 0.00in /  0mm 0 W/m2
03:02 33.2 °F /  0.7 °C 28.9 °F /  -1.7 °C 30.60in /  1036.1hPa Calm     84% 0.00in /  0mm 0 W/m2
03:08 33.2 °F /  0.7 °C 28.9 °F /  -1.7 °C 30.60in /  1036.1hPa Calm     84% 0.00in /  0mm 0 W/m2
03:14 33.2 °F /  0.7 °C 28.9 °F /  -1.7 °C 30.59in /  1035.8hPa Calm     84% 0.00in /  0mm 0 W/m2
03:20 33.2 °F /  0.7 °C 28.9 °F /  -1.7 °C 30.59in /  1035.8hPa Calm     84% 0.00in /  0mm 0 W/m2
03:26 33.2 °F /  0.7 °C 28.9 °F /  -1.7 °C 30.59in /  1035.8hPa Calm     84% 0.00in /  0mm 0 W/m2
03:32 33.2 °F /  0.7 °C 29.2 °F /  -1.6 °C 30.59in /  1035.8hPa Calm     85% 0.00in /  0mm 0 W/m2
03:38 33.2 °F /  0.7 °C 28.9 °F /  -1.7 °C 30.59in /  1035.8hPa Calm     84% 0.00in /  0mm 0 W/m2
03:44 33.2 °F /  0.7 °C 29.2 °F /  -1.6 °C 30.59in /  1035.8hPa Calm     85% 0.00in /  0mm 0 W/m2
03:50 33.2 °F /  0.7 °C 29.2 °F /  -1.6 °C 30.59in /  1035.8hPa Calm     85% 0.00in /  0mm 0 W/m2
03:56 33.2 °F /  0.7 °C 29.2 °F /  -1.6 °C 30.59in /  1035.8hPa Calm   1.0mph /  1.6km/h 85% 0.00in /  0mm 0 W/m2
04:02 33.1 °F /  0.6 °C 29.1 °F /  -1.6 °C 30.59in /  1035.8hPa Calm     85% 0.00in /  0mm 0 W/m2
04:08 33.1 °F /  0.6 °C 29.1 °F /  -1.6 °C 30.58in /  1035.4hPa Calm     85% 0.00in /  0mm 0 W/m2
04:14 33.1 °F /  0.6 °C 29.1 °F /  -1.6 °C 30.59in /  1035.8hPa Calm     85% 0.00in /  0mm 0 W/m2
04:20 33.1 °F /  0.6 °C 29.1 °F /  -1.6 °C 30.59in /  1035.8hPa Calm     85% 0.00in /  0mm 0 W/m2
04:26 33.1 °F /  0.6 °C 29.1 °F /  -1.6 °C 30.59in /  1035.8hPa Calm     85% 0.00in /  0mm 0 W/m2
04:32 33.1 °F /  0.6 °C 29.1 °F /  -1.6 °C 30.59in /  1035.8hPa Calm     85% 0.00in /  0mm 0 W/m2
04:38 33.1 °F /  0.6 °C 29.1 °F /  -1.6 °C 30.59in /  1035.8hPa Calm     85% 0.00in /  0mm 0 W/m2
04:44 33.0 °F /  0.6 °C 29.0 °F /  -1.7 °C 30.59in /  1035.8hPa Calm     85% 0.00in /  0mm 0 W/m2
04:50 33.0 °F /  0.6 °C 29.0 °F /  -1.7 °C 30.59in /  1035.8hPa Calm     85% 0.00in /  0mm 0 W/m2
04:56 33.0 °F /  0.6 °C 29.0 °F /  -1.7 °C 30.59in /  1035.8hPa Calm   1.0mph /  1.6km/h 85% 0.00in /  0mm 0 W/m2
05:02 33.0 °F /  0.6 °C 29.0 °F /  -1.7 °C 30.59in /  1035.8hPa Calm     85% 0.00in /  0mm 0 W/m2
05:08 33.1 °F /  0.6 °C 29.1 °F /  -1.6 °C 30.59in /  1035.8hPa Calm     85% 0.00in /  0mm 0 W/m2
05:14 33.0 °F /  0.6 °C 29.0 °F /  -1.7 °C 30.59in /  1035.8hPa Calm   1.0mph /  1.6km/h 85% 0.00in /  0mm 0 W/m2
05:20 33.0 °F /  0.6 °C 29.0 °F /  -1.7 °C 30.60in /  1036.1hPa Calm     85% 0.00in /  0mm 0 W/m2
05:26 33.1 °F /  0.6 °C 29.1 °F /  -1.6 °C 30.60in /  1036.1hPa Calm     85% 0.00in /  0mm 0 W/m2
05:32 33.1 °F /  0.6 °C 29.4 °F /  -1.4 °C 30.61in /  1036.5hPa Calm     86% 0.00in /  0mm 0 W/m2
05:38 33.1 °F /  0.6 °C 29.4 °F /  -1.4 °C 30.60in /  1036.1hPa Calm     86% 0.00in /  0mm 0 W/m2
05:44 33.1 °F /  0.6 °C 29.4 °F /  -1.4 °C 30.60in /  1036.1hPa Calm     86% 0.00in /  0mm 0 W/m2
05:50 33.1 °F /  0.6 °C 29.1 °F /  -1.6 °C 30.60in /  1036.1hPa Calm     85% 0.00in /  0mm 0 W/m2
05:56 33.1 °F /  0.6 °C 29.1 °F /  -1.6 °C 30.59in /  1035.8hPa Calm     85% 0.00in /  0mm 0 W/m2
06:02 33.1 °F /  0.6 °C 29.1 °F /  -1.6 °C 30.59in /  1035.8hPa Calm     85% 0.00in /  0mm 0 W/m2
06:08 33.1 °F /  0.6 °C 29.4 °F /  -1.4 °C 30.59in /  1035.8hPa Calm     86% 0.00in /  0mm 0 W/m2
06:14 33.2 °F /  0.7 °C 29.5 °F /  -1.4 °C 30.59in /  1035.8hPa Calm     86% 0.00in /  0mm 0 W/m2
06:20 33.1 °F /  0.6 °C 29.4 °F /  -1.4 °C 30.59in /  1035.8hPa Calm     86% 0.00in /  0mm 0 W/m2
06:26 33.1 °F /  0.6 °C 29.4 °F /  -1.4 °C 30.59in /  1035.8hPa Calm     86% 0.00in /  0mm 0 W/m2
06:32 33.1 °F /  0.6 °C 29.4 °F /  -1.4 °C 30.59in /  1035.8hPa Calm     86% 0.00in /  0mm 0 W/m2
06:38 33.1 °F /  0.6 °C 29.4 °F /  -1.4 °C 30.59in /  1035.8hPa Calm     86% 0.00in /  0mm 0 W/m2
06:44 33.1 °F /  0.6 °C 29.4 °F /  -1.4 °C 30.59in /  1035.8hPa Calm     86% 0.00in /  0mm 0 W/m2
06:50 33.2 °F /  0.7 °C 29.5 °F /  -1.4 °C 30.59in /  1035.8hPa Calm     86% 0.00in /  0mm 0 W/m2
06:56 33.2 °F /  0.7 °C 29.5 °F /  -1.4 °C 30.59in /  1035.8hPa Calm     86% 0.00in /  0mm 0 W/m2
07:02 33.1 °F /  0.6 °C 29.4 °F /  -1.4 °C 30.60in /  1036.1hPa Calm     86% 0.00in /  0mm 0 W/m2
07:08 33.0 °F /  0.6 °C 29.3 °F /  -1.5 °C 30.59in /  1035.8hPa Calm     86% 0.00in /  0mm 9 W/m2
07:14 33.0 °F /  0.6 °C 29.3 °F /  -1.5 °C 30.61in /  1036.5hPa Calm     86% 0.00in /  0mm 5 W/m2
07:20 33.0 °F /  0.6 °C 29.6 °F /  -1.3 °C 30.61in /  1036.5hPa Calm     87% 0.00in /  0mm 14 W/m2
07:26 33.1 °F /  0.6 °C 29.4 °F /  -1.4 °C 30.61in /  1036.5hPa Calm     86% 0.00in /  0mm 18 W/m2
07:32 33.1 °F /  0.6 °C 29.7 °F /  -1.3 °C 30.61in /  1036.5hPa Calm   1.0mph /  1.6km/h 87% 0.00in /  0mm 7 W/m2
07:38 33.0 °F /  0.6 °C 29.6 °F /  -1.3 °C 30.61in /  1036.5hPa Calm   1.0mph /  1.6km/h 87% 0.00in /  0mm 11 W/m2
07:44 33.0 °F /  0.6 °C 29.6 °F /  -1.3 °C 30.62in /  1036.8hPa Calm     87% 0.00in /  0mm 14 W/m2
07:50 33.0 °F /  0.6 °C 29.6 °F /  -1.3 °C 30.62in /  1036.8hPa Calm     87% 0.00in /  0mm 18 W/m2
07:56 33.1 °F /  0.6 °C 29.7 °F /  -1.3 °C 30.62in /  1036.8hPa Calm     87% 0.00in /  0mm 25 W/m2
08:02 33.1 °F /  0.6 °C 29.7 °F /  -1.3 °C 30.61in /  1036.5hPa Calm     87% 0.00in /  0mm 16 W/m2
08:08 33.1 °F /  0.6 °C 29.7 °F /  -1.3 °C 30.61in /  1036.5hPa Calm     87% 0.00in /  0mm 16 W/m2
08:14 33.0 °F /  0.6 °C 29.6 °F /  -1.3 °C 30.62in /  1036.8hPa Calm     87% 0.00in /  0mm 18 W/m2
08:20 33.1 °F /  0.6 °C 29.7 °F /  -1.3 °C 30.62in /  1036.8hPa Calm     87% 0.00in /  0mm 19 W/m2
08:26 33.2 °F /  0.7 °C 29.8 °F /  -1.2 °C 30.62in /  1036.8hPa Calm     87% 0.00in /  0mm 21 W/m2
08:32 33.2 °F /  0.7 °C 29.8 °F /  -1.2 °C 30.62in /  1036.8hPa Calm   3.0mph /  4.8km/h 87% 0.00in /  0mm 26 W/m2
08:38 33.3 °F /  0.7 °C 29.8 °F /  -1.2 °C 30.62in /  1036.8hPa WNW 1.0mph /  1.6km/h 3.0mph /  4.8km/h 87% 0.00in /  0mm 26 W/m2
08:44 33.3 °F /  0.7 °C 29.8 °F /  -1.2 °C 30.62in /  1036.8hPa Calm     87% 0.00in /  0mm 30 W/m2
08:50 33.4 °F /  0.8 °C 29.9 °F /  -1.2 °C 30.62in /  1036.8hPa Calm   1.0mph /  1.6km/h 87% 0.00in /  0mm 30 W/m2
08:56 33.4 °F /  0.8 °C 29.9 °F /  -1.2 °C 30.63in /  1037.1hPa Calm   1.0mph /  1.6km/h 87% 0.00in /  0mm 30 W/m2
09:02 33.5 °F /  0.8 °C 30.0 °F /  -1.1 °C 30.64in /  1037.5hPa Calm     87% 0.00in /  0mm 33 W/m2
09:08 33.6 °F /  0.9 °C 30.1 °F /  -1.1 °C 30.65in /  1037.8hPa Calm   1.0mph /  1.6km/h 87% 0.00in /  0mm 39 W/m2
09:14 33.6 °F /  0.9 °C 30.1 °F /  -1.1 °C 30.65in /  1037.8hPa WNW 1.0mph /  1.6km/h 1.0mph /  1.6km/h 87% 0.00in /  0mm 35 W/m2
09:20 33.7 °F /  0.9 °C 30.2 °F /  -1 °C 30.65in /  1037.8hPa WNW 1.0mph /  1.6km/h 3.0mph /  4.8km/h 87% 0.00in /  0mm 46 W/m2
09:26 33.6 °F /  0.9 °C 30.1 °F /  -1.1 °C 30.66in /  1038.1hPa WNW 1.0mph /  1.6km/h 3.0mph /  4.8km/h 87% 0.00in /  0mm 47 W/m2
09:32 33.7 °F /  0.9 °C 30.2 °F /  -1 °C 30.66in /  1038.1hPa Calm   1.0mph /  1.6km/h 87% 0.00in /  0mm 39 W/m2
09:38 33.7 °F /  0.9 °C 30.2 °F /  -1 °C 30.66in /  1038.1hPa Calm   1.0mph /  1.6km/h 87% 0.00in /  0mm 40 W/m2
09:44 33.8 °F /  1 °C 30.3 °F /  -0.9 °C 30.65in /  1037.8hPa Calm     87% 0.00in /  0mm 54 W/m2
09:50 33.9 °F /  1.1 °C 30.4 °F /  -0.9 °C 30.64in /  1037.5hPa Calm     87% 0.00in /  0mm 62 W/m2
09:56 34.0 °F /  1.1 °C 30.5 °F /  -0.8 °C 30.64in /  1037.5hPa WNW 1.0mph /  1.6km/h 2.0mph /  3.2km/h 87% 0.00in /  0mm 70 W/m2
10:02 34.3 °F /  1.3 °C 30.5 °F /  -0.8 °C 30.63in /  1037.1hPa South 1.0mph /  1.6km/h 3.0mph /  4.8km/h 86% 0.00in /  0mm 69 W/m2
10:08 34.3 °F /  1.3 °C 30.5 °F /  -0.8 °C 30.63in /  1037.1hPa SSE 2.0mph /  3.2km/h 3.0mph /  4.8km/h 86% 0.00in /  0mm 70 W/m2
10:14 34.4 °F /  1.3 °C 30.6 °F /  -0.8 °C 30.63in /  1037.1hPa SSE 1.0mph /  1.6km/h 2.0mph /  3.2km/h 86% 0.00in /  0mm 70 W/m2
10:20 34.4 °F /  1.3 °C 30.6 °F /  -0.8 °C 30.63in /  1037.1hPa Calm     86% 0.00in /  0mm 72 W/m2
10:26 34.5 °F /  1.4 °C 30.7 °F /  -0.7 °C 30.63in /  1037.1hPa Calm   1.0mph /  1.6km/h 86% 0.00in /  0mm 79 W/m2
10:32 34.6 °F /  1.4 °C 30.8 °F /  -0.7 °C 30.64in /  1037.5hPa Calm     86% 0.00in /  0mm 60 W/m2
10:38 34.8 °F /  1.6 °C 31.0 °F /  -0.6 °C 30.63in /  1037.1hPa Calm     86% 0.00in /  0mm 72 W/m2
10:44 34.8 °F /  1.6 °C 30.8 °F /  -0.7 °C 30.63in /  1037.1hPa Calm     85% 0.00in /  0mm 70 W/m2
10:50 34.8 °F /  1.6 °C 30.8 °F /  -0.7 °C 30.63in /  1037.1hPa Calm     85% 0.00in /  0mm 60 W/m2
10:56 34.8 °F /  1.6 °C 30.8 °F /  -0.7 °C 30.63in /  1037.1hPa Calm     85% 0.00in /  0mm 70 W/m2
11:02 34.9 °F /  1.6 °C 30.8 °F /  -0.7 °C 30.63in /  1037.1hPa Calm     85% 0.00in /  0mm 76 W/m2
11:08 35.1 °F /  1.7 °C 31.0 °F /  -0.6 °C 30.63in /  1037.1hPa SSE 1.0mph /  1.6km/h 2.0mph /  3.2km/h 85% 0.00in /  0mm 72 W/m2
11:14 35.0 °F /  1.7 °C 30.9 °F /  -0.6 °C 30.63in /  1037.1hPa SSE 1.0mph /  1.6km/h 3.0mph /  4.8km/h 85% 0.00in /  0mm 58 W/m2
11:20 35.0 °F /  1.7 °C 30.9 °F /  -0.6 °C 30.63in /  1037.1hPa SSE 1.0mph /  1.6km/h 1.0mph /  1.6km/h 85% 0.00in /  0mm 53 W/m2
11:26 34.8 °F /  1.6 °C 30.8 °F /  -0.7 °C 30.64in /  1037.5hPa SSE 1.0mph /  1.6km/h 2.0mph /  3.2km/h 85% 0.00in /  0mm 58 W/m2
11:32 34.6 °F /  1.4 °C 30.8 °F /  -0.7 °C 30.64in /  1037.5hPa SSE 1.0mph /  1.6km/h 1.0mph /  1.6km/h 86% 0.00in /  0mm 51 W/m2
11:38 34.3 °F /  1.3 °C 30.5 °F /  -0.8 °C 30.64in /  1037.5hPa Calm   1.0mph /  1.6km/h 86% 0.00in /  0mm 53 W/m2
11:44 34.0 °F /  1.1 °C 30.5 °F /  -0.8 °C 30.64in /  1037.5hPa Calm     87% 0.00in /  0mm 40 W/m2
11:50 33.7 °F /  0.9 °C 30.2 °F /  -1 °C 30.64in /  1037.5hPa Calm     87% 0.00in /  0mm 37 W/m2
11:56 33.5 °F /  0.8 °C 30.0 °F /  -1.1 °C 30.64in /  1037.5hPa Calm   2.0mph /  3.2km/h 87% 0.00in /  0mm 40 W/m2
12:02 33.2 °F /  0.7 °C 30.0 °F /  -1.1 °C 30.64in /  1037.5hPa Calm   1.0mph /  1.6km/h 88% 0.00in /  0mm 35 W/m2
12:08 33.1 °F /  0.6 °C 29.9 °F /  -1.2 °C 30.64in /  1037.5hPa Calm   1.0mph /  1.6km/h 88% 0.00in /  0mm 35 W/m2
12:14 32.9 °F /  0.5 °C 29.7 °F /  -1.3 °C 30.64in /  1037.5hPa Calm     88% 0.00in /  0mm 39 W/m2
12:20 32.8 °F /  0.4 °C 29.6 °F /  -1.3 °C 30.64in /  1037.5hPa Calm     88% 0.00in /  0mm 39 W/m2
12:26 32.8 °F /  0.4 °C 29.9 °F /  -1.2 °C 30.63in /  1037.1hPa Calm     89% 0.00in /  0mm 39 W/m2
12:32 32.8 °F /  0.4 °C 29.9 °F /  -1.2 °C 30.63in /  1037.1hPa Calm     89% 0.00in /  0mm 42 W/m2
12:38 32.8 °F /  0.4 °C 29.9 °F /  -1.2 °C 30.63in /  1037.1hPa Calm     89% 0.00in /  0mm 47 W/m2
12:44 32.8 °F /  0.4 °C 30.2 °F /  -1 °C 30.63in /  1037.1hPa Calm     90% 0.00in /  0mm 47 W/m2
12:50 32.8 °F /  0.4 °C 30.2 °F /  -1 °C 30.63in /  1037.1hPa Calm     90% 0.00in /  0mm 44 W/m2
12:56 32.8 °F /  0.4 °C 30.2 °F /  -1 °C 30.63in /  1037.1hPa Calm     90% 0.00in /  0mm 44 W/m2
13:02 32.7 °F /  0.4 °C 30.1 °F /  -1.1 °C 30.63in /  1037.1hPa Calm     90% 0.00in /  0mm 44 W/m2
13:08 32.7 °F /  0.4 °C 30.1 °F /  -1.1 °C 30.63in /  1037.1hPa Calm     90% 0.00in /  0mm 47 W/m2
13:14 32.8 °F /  0.4 °C 30.2 °F /  -1 °C 30.63in /  1037.1hPa Calm     90% 0.00in /  0mm 47 W/m2
13:20 32.7 °F /  0.4 °C 30.1 °F /  -1.1 °C 30.63in /  1037.1hPa Calm     90% 0.00in /  0mm 47 W/m2
13:26 32.8 °F /  0.4 °C 30.2 °F /  -1 °C 30.64in /  1037.5hPa Calm     90% 0.00in /  0mm 54 W/m2
13:32 32.8 °F /  0.4 °C 30.2 °F /  -1 °C 30.64in /  1037.5hPa Calm     90% 0.00in /  0mm 56 W/m2
13:38 32.8 °F /  0.4 °C 30.2 °F /  -1 °C 30.63in /  1037.1hPa Calm     90% 0.00in /  0mm 56 W/m2
13:44 33.0 °F /  0.6 °C 30.7 °F /  -0.7 °C 30.64in /  1037.5hPa Calm     91% 0.00in /  0mm 69 W/m2
13:50 33.0 °F /  0.6 °C 30.7 °F /  -0.7 °C 30.64in /  1037.5hPa Calm     91% 0.05in /  1.27mm 72 W/m2
13:56 32.9 °F /  0.5 °C 30.6 °F /  -0.8 °C 30.63in /  1037.1hPa Calm     91% 0.05in /  1.27mm 74 W/m2
14:02 33.0 °F /  0.6 °C 30.7 °F /  -0.7 °C 30.64in /  1037.5hPa Calm     91% 0.06in /  1.52mm 90 W/m2
14:08 33.1 °F /  0.6 °C 30.8 °F /  -0.7 °C 30.64in /  1037.5hPa Calm     91% 0.05in /  1.27mm 86 W/m2
14:14 33.3 °F /  0.7 °C 31.0 °F /  -0.6 °C 30.64in /  1037.5hPa Calm     91% 0.00in /  0mm 102 W/m2
14:20 33.6 °F /  0.9 °C 31.3 °F /  -0.4 °C 30.65in /  1037.8hPa Calm     91% 0.00in /  0mm 123 W/m2
14:26 33.7 °F /  0.9 °C 31.4 °F /  -0.3 °C 30.65in /  1037.8hPa Calm     91% 0.05in /  1.27mm 121 W/m2
14:32 33.6 °F /  0.9 °C 31.3 °F /  -0.4 °C 30.65in /  1037.8hPa Calm     91% 0.05in /  1.27mm 100 W/m2
14:38 33.5 °F /  0.8 °C 31.2 °F /  -0.4 °C 30.65in /  1037.8hPa Calm   1.0mph /  1.6km/h 91% 0.06in /  1.52mm 100 W/m2
14:44 33.4 °F /  0.8 °C 31.1 °F /  -0.5 °C 30.65in /  1037.8hPa SSE 1.0mph /  1.6km/h 4.0mph /  6.4km/h 91% 0.09in /  2.29mm 86 W/m2
14:50 33.3 °F /  0.7 °C 31.0 °F /  -0.6 °C 30.65in /  1037.8hPa WSW 1.0mph /  1.6km/h 1.0mph /  1.6km/h 91% 0.08in /  2.03mm 91 W/m2
14:56 33.3 °F /  0.7 °C 31.0 °F /  -0.6 °C 30.65in /  1037.8hPa Calm   1.0mph /  1.6km/h 91% 0.04in /  1.02mm 84 W/m2
15:02 33.3 °F /  0.7 °C 31.0 °F /  -0.6 °C 30.65in /  1037.8hPa Calm     91% 0.04in /  1.02mm 74 W/m2
15:08 33.4 °F /  0.8 °C 31.1 °F /  -0.5 °C 30.64in /  1037.5hPa Calm     91% 0.04in /  1.02mm 109 W/m2
15:14 33.3 °F /  0.7 °C 31.0 °F /  -0.6 °C 30.64in /  1037.5hPa Calm     91% 0.05in /  1.27mm 102 W/m2
15:20 33.4 °F /  0.8 °C 31.1 °F /  -0.5 °C 30.63in /  1037.1hPa Calm     91% 0.05in /  1.27mm 97 W/m2
15:26 33.4 °F /  0.8 °C 31.1 °F /  -0.5 °C 30.63in /  1037.1hPa Calm   2.0mph /  3.2km/h 91% 0.04in /  1.02mm 120 W/m2
15:32 33.4 °F /  0.8 °C 31.1 °F /  -0.5 °C 30.63in /  1037.1hPa WSW 1.0mph /  1.6km/h 1.0mph /  1.6km/h 91% 0.04in /  1.02mm 79 W/m2
15:38 33.3 °F /  0.7 °C 31.0 °F /  -0.6 °C 30.63in /  1037.1hPa WSW 1.0mph /  1.6km/h 1.0mph /  1.6km/h 91% 0.04in /  1.02mm 60 W/m2
15:44 33.5 °F /  0.8 °C 31.2 °F /  -0.4 °C 30.63in /  1037.1hPa Calm     91% 0.04in /  1.02mm 67 W/m2
15:50 33.5 °F /  0.8 °C 31.2 °F /  -0.4 °C 30.63in /  1037.1hPa Calm     91% 0.04in /  1.02mm 72 W/m2
15:58 33.6 °F /  0.9 °C 31.3 °F /  -0.4 °C 30.63in /  1037.1hPa Calm   1.0mph /  1.6km/h 91% 0.00in /  0mm 63 W/m2
16:06 33.5 °F /  0.8 °C 31.2 °F /  -0.4 °C 30.62in /  1036.8hPa Calm   2.0mph /  3.2km/h 91% 0.00in /  0mm 58 W/m2
16:12 33.5 °F /  0.8 °C 31.2 °F /  -0.4 °C 30.61in /  1036.5hPa WSW 1.0mph /  1.6km/h 1.0mph /  1.6km/h 91% 0.00in /  0mm 54 W/m2
16:18 33.6 °F /  0.9 °C 31.3 °F /  -0.4 °C 30.61in /  1036.5hPa WSW 1.0mph /  1.6km/h 2.0mph /  3.2km/h 91% 0.00in /  0mm 76 W/m2
16:24 33.6 °F /  0.9 °C 31.3 °F /  -0.4 °C 30.61in /  1036.5hPa WSW 1.0mph /  1.6km/h 1.0mph /  1.6km/h 91% 0.00in /  0mm 72 W/m2
16:30 33.7 °F /  0.9 °C 31.4 °F /  -0.3 °C 30.61in /  1036.5hPa WSW 1.0mph /  1.6km/h 1.0mph /  1.6km/h 91% 0.00in /  0mm 84 W/m2
16:36 33.7 °F /  0.9 °C 31.4 °F /  -0.3 °C 30.61in /  1036.5hPa WSW 1.0mph /  1.6km/h 1.0mph /  1.6km/h 91% 0.00in /  0mm 69 W/m2
16:42 33.8 °F /  1 °C 31.5 °F /  -0.3 °C 30.60in /  1036.1hPa WSW 1.0mph /  1.6km/h 1.0mph /  1.6km/h 91% 0.00in /  0mm 58 W/m2
16:48 33.7 °F /  0.9 °C 31.4 °F /  -0.3 °C 30.61in /  1036.5hPa Calm   1.0mph /  1.6km/h 91% 0.00in /  0mm 40 W/m2
16:54 33.7 °F /  0.9 °C 31.4 °F /  -0.3 °C 30.60in /  1036.1hPa Calm     91% 0.00in /  0mm 56 W/m2
17:00 33.7 °F /  0.9 °C 31.4 °F /  -0.3 °C 30.60in /  1036.1hPa Calm     91% 0.00in /  0mm 33 W/m2
17:06 33.7 °F /  0.9 °C 31.4 °F /  -0.3 °C 30.61in /  1036.5hPa Calm   1.0mph /  1.6km/h 91% 0.00in /  0mm 18 W/m2
17:12 33.5 °F /  0.8 °C 31.2 °F /  -0.4 °C 30.61in /  1036.5hPa Calm     91% 0.00in /  0mm 12 W/m2
17:18 33.5 °F /  0.8 °C 31.2 °F /  -0.4 °C 30.61in /  1036.5hPa Calm   1.0mph /  1.6km/h 91% 0.00in /  0mm 11 W/m2
17:24 33.5 °F /  0.8 °C 31.2 °F /  -0.4 °C 30.61in /  1036.5hPa Calm   1.0mph /  1.6km/h 91% 0.00in /  0mm 9 W/m2
17:30 33.5 °F /  0.8 °C 31.2 °F /  -0.4 °C 30.61in /  1036.5hPa Calm     91% 0.00in /  0mm 7 W/m2
17:36 33.5 °F /  0.8 °C 31.2 °F /  -0.4 °C 30.61in /  1036.5hPa Calm   3.0mph /  4.8km/h 91% 0.00in /  0mm 5 W/m2
17:42 33.4 °F /  0.8 °C 31.1 °F /  -0.5 °C 30.62in /  1036.8hPa NNW 1.0mph /  1.6km/h 1.0mph /  1.6km/h 91% 0.00in /  0mm 0 W/m2
17:48 33.5 °F /  0.8 °C 31.2 °F /  -0.4 °C 30.63in /  1037.1hPa NNW 1.0mph /  1.6km/h 2.0mph /  3.2km/h 91% 0.00in /  0mm 0 W/m2
17:54 33.5 °F /  0.8 °C 31.2 °F /  -0.4 °C 30.63in /  1037.1hPa Calm   1.0mph /  1.6km/h 91% 0.00in /  0mm 0 W/m2
18:00 33.4 °F /  0.8 °C 31.1 °F /  -0.5 °C 30.64in /  1037.5hPa Calm     91% 0.00in /  0mm 0 W/m2
18:06 33.4 °F /  0.8 °C 31.1 °F /  -0.5 °C 30.63in /  1037.1hPa Calm   1.0mph /  1.6km/h 91% 0.00in /  0mm 0 W/m2
18:12 33.3 °F /  0.7 °C 31.0 °F /  -0.6 °C 30.63in /  1037.1hPa NNW 1.0mph /  1.6km/h 1.0mph /  1.6km/h 91% 0.00in /  0mm 0 W/m2
18:18 33.3 °F /  0.7 °C 31.0 °F /  -0.6 °C 30.63in /  1037.1hPa Calm   1.0mph /  1.6km/h 91% 0.00in /  0mm 0 W/m2
18:24 33.3 °F /  0.7 °C 31.0 °F /  -0.6 °C 30.63in /  1037.1hPa Calm     91% 0.00in /  0mm 0 W/m2
18:30 33.3 °F /  0.7 °C 31.0 °F /  -0.6 °C 30.63in /  1037.1hPa Calm     91% 0.00in /  0mm 0 W/m2
18:36 33.3 °F /  0.7 °C 31.0 °F /  -0.6 °C 30.63in /  1037.1hPa Calm     91% 0.00in /  0mm 0 W/m2
18:42 33.2 °F /  0.7 °C 30.9 °F /  -0.6 °C 30.63in /  1037.1hPa Calm     91% 0.00in /  0mm 0 W/m2
18:48 33.2 °F /  0.7 °C 30.9 °F /  -0.6 °C 30.64in /  1037.5hPa Calm     91% 0.00in /  0mm 0 W/m2
18:54 33.2 °F /  0.7 °C 30.9 °F /  -0.6 °C 30.65in /  1037.8hPa Calm     91% 0.00in /  0mm 0 W/m2
19:00 33.2 °F /  0.7 °C 30.9 °F /  -0.6 °C 30.65in /  1037.8hPa Calm     91% 0.00in /  0mm 0 W/m2
19:06 33.1 °F /  0.6 °C 30.8 °F /  -0.7 °C 30.65in /  1037.8hPa Calm     91% 0.00in /  0mm 0 W/m2
19:12 33.1 °F /  0.6 °C 30.8 °F /  -0.7 °C 30.66in /  1038.1hPa Calm     91% 0.00in /  0mm 0 W/m2
19:18 33.1 °F /  0.6 °C 30.8 °F /  -0.7 °C 30.65in /  1037.8hPa Calm     91% 0.00in /  0mm 0 W/m2
19:24 33.0 °F /  0.6 °C 30.9 °F /  -0.6 °C 30.65in /  1037.8hPa Calm     92% 0.00in /  0mm 0 W/m2
19:30 33.0 °F /  0.6 °C 30.9 °F /  -0.6 °C 30.65in /  1037.8hPa Calm     92% 0.00in /  0mm 0 W/m2
19:36 32.9 °F /  0.5 °C 30.8 °F /  -0.7 °C 30.65in /  1037.8hPa Calm     92% 0.00in /  0mm 0 W/m2
19:42 32.7 °F /  0.4 °C 30.4 °F /  -0.9 °C 30.64in /  1037.5hPa Calm     91% 0.00in /  0mm 0 W/m2
19:48 32.5 °F /  0.3 °C 30.2 °F /  -1 °C 30.63in /  1037.1hPa Calm     91% 0.00in /  0mm 0 W/m2
19:54 32.0 °F /  0 °C 29.7 °F /  -1.3 °C 30.63in /  1037.1hPa Calm   1.0mph /  1.6km/h 91% 0.00in /  0mm 0 W/m2
20:00 31.8 °F /  -0.1 °C 29.7 °F /  -1.3 °C 30.62in /  1036.8hPa Calm     92% 0.00in /  0mm 0 W/m2
20:06 31.6 °F /  -0.2 °C 29.3 °F /  -1.5 °C 30.63in /  1037.1hPa Calm     91% 0.00in /  0mm 0 W/m2
20:12 31.4 °F /  -0.3 °C 29.3 °F /  -1.5 °C 30.65in /  1037.8hPa Calm     92% 0.00in /  0mm 0 W/m2
20:18 31.2 °F /  -0.4 °C 29.1 °F /  -1.6 °C 30.65in /  1037.8hPa Calm     92% 0.00in /  0mm 0 W/m2
20:24 31.0 °F /  -0.6 °C 28.7 °F /  -1.8 °C 30.65in /  1037.8hPa Calm     91% 0.00in /  0mm 0 W/m2
20:30 30.8 °F /  -0.7 °C 28.8 °F /  -1.8 °C 30.65in /  1037.8hPa Calm     92% 0.00in /  0mm 0 W/m2
20:36 30.7 °F /  -0.7 °C 28.7 °F /  -1.8 °C 30.65in /  1037.8hPa Calm     92% 0.00in /  0mm 0 W/m2
20:42 30.7 °F /  -0.7 °C 28.7 °F /  -1.8 °C 30.65in /  1037.8hPa Calm     92% 0.00in /  0mm 0 W/m2
20:48 30.7 °F /  -0.7 °C 28.7 °F /  -1.8 °C 30.65in /  1037.8hPa Calm     92% 0.00in /  0mm 0 W/m2
20:54 30.8 °F /  -0.7 °C 28.8 °F /  -1.8 °C 30.65in /  1037.8hPa Calm     92% 0.00in /  0mm 0 W/m2
21:00 30.9 °F /  -0.6 °C 28.9 °F /  -1.7 °C 30.65in /  1037.8hPa Calm     92% 0.00in /  0mm 0 W/m2
21:06 31.0 °F /  -0.6 °C 28.9 °F /  -1.7 °C 30.65in /  1037.8hPa Calm     92% 0.00in /  0mm 0 W/m2
21:12 31.0 °F /  -0.6 °C 28.9 °F /  -1.7 °C 30.65in /  1037.8hPa Calm     92% 0.00in /  0mm 0 W/m2
21:18 31.2 °F /  -0.4 °C 29.1 °F /  -1.6 °C 30.65in /  1037.8hPa Calm     92% 0.00in /  0mm 0 W/m2
21:24 31.4 °F /  -0.3 °C 29.3 °F /  -1.5 °C 30.65in /  1037.8hPa Calm     92% 0.00in /  0mm 0 W/m2
21:30 31.5 °F /  -0.3 °C 29.4 °F /  -1.4 °C 30.65in /  1037.8hPa Calm     92% 0.00in /  0mm 0 W/m2
21:36 31.7 °F /  -0.2 °C 29.6 °F /  -1.3 °C 30.65in /  1037.8hPa Calm     92% 0.00in /  0mm 0 W/m2
21:42 31.8 °F /  -0.1 °C 29.7 °F /  -1.3 °C 30.65in /  1037.8hPa Calm     92% 0.00in /  0mm 0 W/m2
21:48 31.8 °F /  -0.1 °C 29.7 °F /  -1.3 °C 30.65in /  1037.8hPa Calm     92% 0.00in /  0mm 0 W/m2
21:54 31.8 °F /  -0.1 °C 29.7 °F /  -1.3 °C 30.65in /  1037.8hPa Calm     92% 0.00in /  0mm 0 W/m2
22:00 31.8 °F /  -0.1 °C 29.7 °F /  -1.3 °C 30.65in /  1037.8hPa Calm     92% 0.00in /  0mm 0 W/m2
22:06 31.8 °F /  -0.1 °C 29.7 °F /  -1.3 °C 30.65in /  1037.8hPa Calm     92% 0.00in /  0mm 0 W/m2
22:12 31.9 °F /  -0.1 °C 29.8 °F /  -1.2 °C 30.65in /  1037.8hPa Calm     92% 0.00in /  0mm 0 W/m2
22:18 32.1 °F /  0.1 °C 30.0 °F /  -1.1 °C 30.65in /  1037.8hPa Calm     92% 0.00in /  0mm 0 W/m2
22:24 32.1 °F /  0.1 °C 30.0 °F /  -1.1 °C 30.65in /  1037.8hPa Calm     92% 0.00in /  0mm 0 W/m2
22:30 32.2 °F /  0.1 °C 30.1 °F /  -1.1 °C 30.65in /  1037.8hPa Calm     92% 0.00in /  0mm 0 W/m2
22:36 32.1 °F /  0.1 °C 30.0 °F /  -1.1 °C 30.65in /  1037.8hPa Calm     92% 0.00in /  0mm 0 W/m2
22:42 32.0 °F /  0 °C 29.9 °F /  -1.2 °C 30.65in /  1037.8hPa Calm     92% 0.00in /  0mm 0 W/m2
22:48 32.0 °F /  0 °C 29.9 °F /  -1.2 °C 30.65in /  1037.8hPa Calm     92% 0.00in /  0mm 0 W/m2
22:54 32.0 °F /  0 °C 30.2 °F /  -1 °C 30.65in /  1037.8hPa Calm     93% 0.00in /  0mm 0 W/m2
23:00 32.1 °F /  0.1 °C 30.3 °F /  -0.9 °C 30.65in /  1037.8hPa Calm     93% 0.00in /  0mm 0 W/m2
23:06 32.0 °F /  0 °C 30.2 °F /  -1 °C 30.64in /  1037.5hPa Calm     93% 0.00in /  0mm 0 W/m2
23:12 31.9 °F /  -0.1 °C 30.1 °F /  -1.1 °C 30.63in /  1037.1hPa Calm     93% 0.00in /  0mm 0 W/m2
23:18 31.9 °F /  -0.1 °C 30.1 °F /  -1.1 °C 30.63in /  1037.1hPa Calm     93% 0.00in /  0mm 0 W/m2
23:24 31.9 °F /  -0.1 °C 30.1 °F /  -1.1 °C 30.63in /  1037.1hPa Calm     93% 0.00in /  0mm 0 W/m2
23:30 31.9 °F /  -0.1 °C 30.1 °F /  -1.1 °C 30.63in /  1037.1hPa Calm     93% 0.00in /  0mm 0 W/m2
23:36 31.9 °F /  -0.1 °C 30.1 °F /  -1.1 °C 30.63in /  1037.1hPa Calm     93% 0.00in /  0mm 0 W/m2
23:42 31.9 °F /  -0.1 °C 30.1 °F /  -1.1 °C 30.63in /  1037.1hPa Calm     93% 0.00in /  0mm 0 W/m2
23:48 32.0 °F /  0 °C 30.2 °F /  -1 °C 30.63in /  1037.1hPa Calm     93% 0.00in /  0mm 0 W/m2
23:54 32.0 °F /  0 °C 30.2 °F /  -1 °C 30.64in /  1037.5hPa Calm     93% 0.00in /  0mm 0 W/m2
Country Meadow, Clay, NY, USA
Compliments of Weather Underground - 2 mb